createdAt,value
2018-11-27T00:01:33.435Z,21.60
2018-11-27T00:04:02.258Z,21.60
2018-11-27T00:06:31.090Z,21.60
2018-11-27T00:08:59.942Z,21.60
2018-11-27T00:11:28.787Z,21.60
2018-11-27T00:13:57.675Z,21.60
2018-11-27T00:16:26.513Z,21.60
2018-11-27T00:18:55.345Z,21.60
2018-11-27T00:21:24.177Z,21.70
2018-11-27T00:23:53.447Z,21.70
2018-11-27T00:26:22.641Z,21.60
2018-11-27T00:28:52.850Z,21.60
2018-11-27T00:31:21.676Z,21.60
2018-11-27T00:33:50.522Z,21.70
2018-11-27T00:36:19.390Z,21.70
2018-11-27T00:38:48.234Z,21.60
2018-11-27T00:41:17.464Z,21.60
2018-11-27T00:43:46.313Z,21.60
2018-11-27T00:46:15.153Z,21.60
2018-11-27T00:48:44.003Z,21.60
2018-11-27T00:51:13.292Z,21.60
2018-11-27T00:53:42.531Z,21.60
2018-11-27T00:56:11.373Z,21.60
2018-11-27T00:58:40.220Z,21.60
2018-11-27T01:01:10.077Z,21.50
2018-11-27T01:03:40.609Z,21.60
2018-11-27T01:06:09.454Z,21.50
2018-11-27T01:08:38.293Z,21.60
2018-11-27T01:11:07.382Z,21.60
2018-11-27T01:13:36.177Z,21.60
2018-11-27T01:16:05.298Z,21.60
2018-11-27T01:18:35.163Z,21.60
2018-11-27T01:21:04.008Z,21.60
2018-11-27T01:23:32.858Z,21.60
2018-11-27T01:26:01.719Z,21.60
2018-11-27T01:28:30.562Z,21.60
2018-11-27T01:30:59.497Z,21.60
2018-11-27T01:33:28.391Z,21.60
2018-11-27T01:35:57.234Z,21.60
2018-11-27T01:38:26.111Z,21.60
2018-11-27T01:40:55.704Z,21.60
2018-11-27T01:43:24.594Z,21.60
2018-11-27T01:45:53.450Z,21.60
2018-11-27T01:48:22.377Z,21.50
2018-11-27T01:50:51.207Z,21.50
2018-11-27T01:53:20.054Z,21.50
2018-11-27T01:55:49.018Z,21.50
2018-11-27T01:58:17.857Z,21.60
2018-11-27T02:00:47.958Z,21.50
2018-11-27T02:03:18.662Z,21.50
2018-11-27T02:05:47.514Z,21.60
2018-11-27T02:08:16.367Z,21.60
2018-11-27T02:10:45.245Z,21.60
2018-11-27T02:13:14.113Z,21.60
2018-11-27T02:15:44.162Z,21.60
2018-11-27T02:18:13.106Z,21.60
2018-11-27T02:20:41.956Z,21.60
2018-11-27T02:23:10.846Z,21.60
2018-11-27T02:25:39.681Z,21.60
2018-11-27T02:28:11.383Z,21.60
2018-11-27T02:30:40.291Z,21.60
2018-11-27T02:33:09.137Z,21.60
2018-11-27T02:35:37.978Z,21.60
2018-11-27T02:38:07.253Z,21.60
2018-11-27T02:40:36.686Z,21.60
2018-11-27T02:43:05.773Z,21.50
2018-11-27T02:46:59.121Z,21.50
2018-11-27T02:49:28.030Z,21.50
2018-11-27T02:51:56.978Z,21.50
2018-11-27T02:54:26.208Z,21.50
2018-11-27T02:56:55.095Z,21.50
2018-11-27T02:59:25.419Z,21.50
2018-11-27T03:01:55.794Z,21.50
2018-11-27T03:04:25.662Z,21.60
2018-11-27T03:06:54.528Z,21.60
2018-11-27T03:09:23.366Z,21.60
2018-11-27T03:11:52.248Z,21.60
2018-11-27T03:14:21.116Z,21.60
2018-11-27T03:16:49.985Z,21.60
2018-11-27T03:19:18.851Z,21.60
2018-11-27T03:21:47.696Z,21.60
2018-11-27T03:24:16.525Z,21.60
2018-11-27T03:26:45.897Z,21.60
2018-11-27T03:29:15.294Z,21.60
2018-11-27T03:31:44.145Z,21.60
2018-11-27T03:34:12.990Z,21.60
2018-11-27T03:36:41.834Z,21.50
2018-11-27T03:39:11.061Z,21.50
2018-11-27T03:41:40.157Z,21.50
2018-11-27T03:44:09.006Z,21.50
2018-11-27T03:46:37.859Z,21.50
2018-11-27T03:49:07.634Z,21.50
2018-11-27T03:51:36.461Z,21.50
2018-11-27T03:54:05.717Z,21.50
2018-11-27T03:56:34.589Z,21.50
2018-11-27T03:59:03.446Z,21.50
2018-11-27T04:01:34.030Z,21.60
2018-11-27T04:04:09.857Z,21.60
2018-11-27T04:06:32.601Z,21.60
2018-11-27T04:09:01.464Z,21.60
2018-11-27T04:11:30.334Z,21.60
2018-11-27T04:13:59.184Z,21.60
2018-11-27T04:16:28.183Z,21.60
2018-11-27T04:18:57.040Z,21.60
2018-11-27T04:21:25.912Z,21.60
2018-11-27T04:23:54.762Z,21.60
2018-11-27T04:26:24.377Z,21.50
2018-11-27T04:28:53.321Z,21.50
2018-11-27T04:31:22.173Z,21.50
2018-11-27T04:33:51.062Z,21.50
2018-11-27T04:36:19.916Z,21.50
2018-11-27T04:38:48.803Z,21.50
2018-11-27T04:41:17.802Z,21.40
2018-11-27T04:43:46.638Z,21.50
2018-11-27T04:46:15.479Z,21.50
2018-11-27T04:48:44.539Z,21.50
2018-11-27T04:51:13.374Z,21.50
2018-11-27T04:53:42.919Z,21.50
2018-11-27T04:56:11.795Z,21.50
2018-11-27T04:58:42.410Z,21.50
2018-11-27T05:01:12.485Z,21.50
2018-11-27T05:03:42.853Z,21.60
2018-11-27T05:06:11.693Z,21.60
2018-11-27T05:08:40.554Z,21.60
2018-11-27T05:11:09.448Z,21.60
2018-11-27T05:13:38.286Z,21.60
2018-11-27T05:16:07.226Z,21.60
2018-11-27T05:18:36.111Z,21.50
2018-11-27T05:21:05.150Z,21.50
2018-11-27T05:23:34.010Z,21.50
2018-11-27T05:26:03.473Z,21.50
2018-11-27T05:28:32.394Z,21.50
2018-11-27T05:31:01.269Z,21.50
2018-11-27T05:33:30.130Z,21.50
2018-11-27T05:35:59.031Z,21.50
2018-11-27T05:38:27.886Z,21.50
2018-11-27T05:40:56.818Z,21.50
2018-11-27T05:43:25.657Z,21.50
2018-11-27T05:45:54.510Z,21.50
2018-11-27T05:48:23.694Z,21.50
2018-11-27T05:50:52.534Z,21.50
2018-11-27T05:53:23.118Z,21.50
2018-11-27T05:55:51.969Z,21.50
2018-11-27T05:58:20.810Z,21.50
2018-11-27T06:00:51.221Z,21.50
2018-11-27T06:03:20.062Z,21.50
2018-11-27T06:05:50.239Z,21.60
2018-11-27T06:08:19.133Z,21.50
2018-11-27T06:10:47.973Z,21.50
2018-11-27T06:13:16.902Z,21.50
2018-11-27T06:15:45.735Z,21.50
2018-11-27T06:18:14.813Z,21.50
2018-11-27T06:20:43.693Z,21.50
2018-11-27T06:23:12.562Z,21.50
2018-11-27T06:25:41.419Z,21.50
2018-11-27T06:28:11.414Z,21.50
2018-11-27T06:30:40.498Z,21.50
2018-11-27T06:33:09.353Z,21.40
2018-11-27T06:35:39.368Z,21.40
2018-11-27T06:38:09.264Z,21.40
2018-11-27T06:40:38.456Z,21.40
2018-11-27T06:43:10.144Z,21.50
2018-11-27T06:45:39.922Z,21.50
2018-11-27T06:48:08.989Z,21.50
2018-11-27T06:50:37.837Z,21.50
2018-11-27T06:53:07.465Z,21.50
2018-11-27T06:55:36.851Z,21.50
2018-11-27T06:58:06.760Z,21.50
2018-11-27T07:00:36.673Z,21.50
2018-11-27T07:03:09.741Z,21.50
2018-11-27T07:05:40.810Z,21.50
2018-11-27T07:08:09.916Z,21.50
2018-11-27T07:10:40.386Z,21.50
2018-11-27T07:13:11.717Z,21.50
2018-11-27T07:15:40.866Z,21.50
2018-11-27T07:18:09.728Z,21.50
2018-11-27T07:20:38.607Z,21.40
2018-11-27T07:23:07.623Z,21.50
2018-11-27T07:25:37.024Z,21.50
2018-11-27T07:28:06.707Z,21.40
2018-11-27T07:30:36.538Z,21.40
2018-11-27T07:33:06.051Z,21.40
2018-11-27T07:35:36.912Z,21.40
2018-11-27T07:38:06.294Z,21.40
2018-11-27T07:40:35.157Z,21.40
2018-11-27T07:43:08.877Z,21.40
2018-11-27T07:45:38.299Z,21.50
2018-11-27T07:48:08.146Z,21.50
2018-11-27T07:50:37.018Z,21.50
2018-11-27T07:53:06.385Z,21.50
2018-11-27T07:55:35.230Z,21.50
2018-11-27T07:58:05.518Z,21.50
2018-11-27T08:00:36.358Z,21.50
2018-11-27T08:03:06.274Z,21.50
2018-11-27T08:05:39.345Z,21.50
2018-11-27T08:08:09.745Z,21.50
2018-11-27T08:10:38.578Z,21.50
2018-11-27T08:13:08.641Z,21.50
2018-11-27T08:15:37.594Z,21.50
2018-11-27T08:18:06.525Z,21.60
2018-11-27T08:20:35.453Z,21.60
2018-11-27T08:23:04.772Z,21.60
2018-11-27T08:25:33.904Z,21.70
2018-11-27T08:28:02.787Z,21.70
2018-11-27T08:30:32.723Z,21.80
2018-11-27T08:33:02.295Z,21.90
2018-11-27T08:35:31.186Z,22.00
2018-11-27T08:38:00.846Z,22.00
2018-11-27T08:40:30.979Z,22.10
2018-11-27T08:42:59.954Z,22.10
2018-11-27T08:45:28.883Z,22.20
2018-11-27T08:47:57.757Z,22.20
2018-11-27T08:50:27.584Z,22.20
2018-11-27T08:52:58.012Z,22.30
2018-11-27T08:55:40.401Z,22.30
2018-11-27T08:58:23.920Z,22.30
2018-11-27T09:00:54.427Z,22.40
2018-11-27T09:03:23.502Z,22.30
2018-11-27T09:05:55.032Z,22.40
2018-11-27T09:08:23.931Z,22.40
2018-11-27T09:10:53.824Z,22.40
2018-11-27T09:13:23.242Z,22.40
2018-11-27T09:15:52.086Z,22.40
2018-11-27T09:18:23.438Z,22.40
2018-11-27T09:20:52.333Z,22.40
2018-11-27T09:23:26.707Z,22.50
2018-11-27T09:25:55.597Z,22.50
2018-11-27T09:28:25.627Z,22.50
2018-11-27T09:30:54.548Z,22.50
2018-11-27T09:33:23.779Z,22.50
2018-11-27T09:35:52.645Z,22.50
2018-11-27T09:38:21.636Z,22.50
2018-11-27T09:40:50.469Z,22.50
2018-11-27T09:43:20.831Z,22.50
2018-11-27T09:45:51.447Z,22.60
2018-11-27T09:48:20.659Z,22.60
2018-11-27T09:50:49.544Z,22.60
2018-11-27T09:53:18.539Z,22.60
2018-11-27T09:55:47.409Z,22.70
2018-11-27T09:58:17.143Z,22.70
2018-11-27T10:00:48.023Z,22.70
2018-11-27T10:03:16.899Z,22.70
2018-11-27T10:05:46.991Z,22.70
2018-11-27T10:08:17.405Z,22.80
2018-11-27T10:10:46.357Z,22.80
2018-11-27T10:13:15.329Z,22.70
2018-11-27T10:15:44.259Z,22.70
2018-11-27T10:18:13.173Z,22.70
2018-11-27T10:20:42.829Z,22.70
2018-11-27T10:23:13.969Z,22.70
2018-11-27T10:25:42.884Z,22.70
2018-11-27T10:28:11.801Z,22.70
2018-11-27T10:30:40.726Z,22.70
2018-11-27T10:33:11.465Z,22.70
2018-11-27T10:35:49.442Z,22.80
2018-11-27T10:38:18.341Z,22.90
2018-11-27T10:40:47.420Z,22.80
2018-11-27T10:43:19.710Z,22.90
2018-11-27T10:45:45.675Z,22.90
2018-11-27T10:48:14.621Z,22.90
2018-11-27T10:50:44.311Z,23.00
2018-11-27T10:53:13.497Z,22.90
2018-11-27T10:55:42.394Z,22.80
2018-11-27T10:58:12.014Z,22.80
2018-11-27T11:00:48.294Z,22.80
2018-11-27T11:03:23.664Z,22.70
2018-11-27T11:05:55.579Z,22.70
2018-11-27T11:08:24.478Z,22.70
2018-11-27T11:10:54.041Z,22.60
2018-11-27T11:13:22.934Z,22.60
2018-11-27T11:15:51.885Z,22.60
2018-11-27T11:18:21.973Z,22.60
2018-11-27T11:20:50.833Z,22.50
2018-11-27T11:23:19.765Z,22.50
2018-11-27T11:25:48.819Z,22.50
2018-11-27T11:28:19.109Z,22.40
2018-11-27T11:30:48.162Z,22.40
2018-11-27T11:33:17.090Z,22.40
2018-11-27T11:35:46.645Z,22.40
2018-11-27T11:38:15.975Z,22.40
2018-11-27T11:40:44.985Z,22.30
2018-11-27T11:43:14.172Z,22.30
2018-11-27T11:45:43.542Z,22.30
2018-11-27T11:48:12.600Z,22.30
2018-11-27T11:50:42.186Z,22.20
